• Join FlightAware (Why Join?)
  • Login
  • US Flag 
02:12AM EDT


 

Airport Tracker/Info


-or-


 

Live Flight TrackerFlight Track Log ✈ CCA4524 ✈ 06-Jul-2013 ✈ ZSPD / PVG - ZUJZ / JZH

Flight Track Log - Related Links

Times and Time Zones

All times are in EDT time to prevent confusion due to time zone crossing. See the CCA4524 flight status page for this flight to view local times or setup timezone preferences in your user account.

Time Position Orientation Groundspeed Altitude Reporting Facility
EDT Latitude Longitude Course Direction KTS MPH feet Rate Location/Type
05:26AM 31.0530 121.8270 162° South 204 235 4,100  Level FlightAware
05:26AM 31.0210 121.8370 165° South 246 283 4,900 1,620 Climbing FlightAware
05:27AM 30.9940 121.8240 202° Southwest 255 293 5,600 1,980 Climbing FlightAware
05:27AM 30.9840 121.8000 244° Southwest 249 287 6,400 2,160 Climbing FlightAware
05:27AM 30.9800 121.7860 252° West 253 291 6,800 2,520 Climbing FlightAware
05:28AM 30.9710 121.7520 253° West 262 302 7,900 2,700 Climbing FlightAware
05:28AM 30.9670 121.7320 257° West 268 308 8,500 2,820 Climbing FlightAware
05:28AM 30.9800 121.6900 290° West 271 312 10,000 2,220 Climbing FlightAware
05:29AM 31.0000 121.6500 300° West 303 349 10,800 1,680 Climbing FlightAware
05:30AM 31.0410 121.6010 314° West 322 371 12,000 2,160 Climbing FlightAware
05:30AM 31.0870 121.5480 315° West 323 372 13,900 2,460 Climbing FlightAware
05:31AM 31.1310 121.4960 315° West 324 373 15,500 1,980 Climbing FlightAware
05:32AM 31.2100 121.4020 315° West 352 405 17,600 1,740 Climbing FlightAware
05:33AM 31.2630 121.3390 315° West 364 419 18,900 1,500 Climbing FlightAware
05:34AM 31.3120 121.2820 315° West 369 425 19,800 480 Climbing FlightAware
05:35AM 31.3780 121.2030 314° West 393 452 19,700 -120 Descending FlightAware
05:35AM 31.4300 121.1460 317° Northwest 399 459 19,700 300 Level FlightAware
05:36AM 31.4910 121.0970 326° Northwest 415 478 20,100 1,860 Climbing FlightAware
05:36AM 31.5600 121.0570 334° Northwest 389 448 22,200 2,040 Climbing FlightAware
05:37AM 31.6320 121.0200 336° Northwest 384 442 23,200 1,860 Climbing FlightAware
05:39AM 31.7440 120.9580 335° Northwest 340 391 26,200 1,560 Climbing FlightAware
05:39AM 31.7870 120.9330 334° Northwest 340 391 26,200 2,340 Level FlightAware
05:39AM 31.7990 120.9020 294° West 28,200 5,520 Climbing FlightAware
05:40AM 31.8210 120.8730 312° West 340 391 28,700 480 Climbing FlightAware
05:40AM 31.8580 120.8250 312° West 340 391 28,700  Level FlightAware
05:41AM 31.8990 120.7720 312° West 340 391 28,700  Level FlightAware
05:42AM 31.9310 120.7290 311° West 340 391 28,700  Level FlightAware
05:43AM 31.9740 120.6730 312° West 340 391 28,700  Level FlightAware
05:43AM 32.0060 120.6310 312° West 340 391 28,700 2,520 Level FlightAware
05:43AM 32.0850 120.5790 331° Northwest 32,500 3,720 Climbing FlightAware
05:44AM 32.0920 120.5460 284° West 32,700 960 Climbing FlightAware
05:44AM 32.1090 120.4600 283° West 395 455 33,400 720 Climbing FlightAware
05:45AM 32.1320 120.3420 283° West 398 458 34,000 1,080 Climbing FlightAware
05:46AM 32.1480 120.2690 285° West 398 458 35,100 1,380 Climbing FlightAware
05:47AM 32.1710 120.1560 284° West 402 463 36,000 660 Climbing FlightAware
05:47AM 32.1890 120.0680 284° West 412 474 36,100 60 Climbing FlightAware
05:48AM 32.2070 119.9760 283° West 422 486 36,100  Level FlightAware
05:49AM 32.2250 119.8890 284° West 422 486 36,100  Level FlightAware
05:49AM 32.2430 119.7980 283° West 421 484 36,100  Level FlightAware
05:50AM 32.2600 119.7080 283° West 420 483 36,100  Level FlightAware
05:51AM 32.2750 119.6170 281° West 420 483 36,100  Level FlightAware
05:51AM 32.2860 119.5500 281° West 420 483 36,100  Level FlightAware
05:52AM 32.3050 119.4390 281° West 421 484 36,100  Level FlightAware
05:53AM 32.3190 119.3620 282° West 420 483 36,100  Level FlightAware
05:54AM 32.3380 119.2480 281° West 422 486 36,100  Level FlightAware
05:54AM 32.3500 119.1770 281° West 423 487 36,100  Level FlightAware
05:55AM 32.3770 119.0170 281° West 423 487 36,100  Level FlightAware
05:56AM 32.3950 118.9110 281° West 421 484 36,100  Level FlightAware
05:57AM 32.4070 118.8400 281° West 423 487 36,100  Level FlightAware
05:57AM 32.4220 118.7460 281° West 422 486 36,100  Level FlightAware
05:58AM 32.4340 118.6740 281° West 422 486 36,100  Level FlightAware
05:59AM 32.4460 118.6030 281° West 422 486 36,100  Level FlightAware
06:00AM 32.4740 118.4310 281° West 421 484 36,100  Level FlightAware
06:00AM 32.4870 118.3490 281° West 422 486 36,100  Level FlightAware
06:01AM 32.5020 118.2570 281° West 424 488 36,100  Level FlightAware
06:02AM 32.5170 118.1640 281° West 425 489 36,100  Level FlightAware
06:02AM 32.5330 118.0680 281° West 424 488 36,100  Level FlightAware
06:03AM 32.5480 117.9650 280° West 426 490 36,100  Level FlightAware
06:04AM 32.5590 117.8950 281° West 426 490 36,100  Level FlightAware
06:04AM 32.5730 117.8010 280° West 426 490 36,100  Level FlightAware
06:05AM 32.5830 117.7320 280° West 426 490 36,100  Level FlightAware
06:06AM 32.5970 117.6400 280° West 426 490 36,100  Level FlightAware
06:06AM 32.6070 117.5680 279° West 426 490 36,100  Level FlightAware
06:07AM 32.6220 117.4720 281° West 426 490 36,100  Level FlightAware
06:08AM 32.6320 117.3990 279° West 426 490 36,100  Level FlightAware
06:08AM 32.6430 117.3290 281° West 426 490 36,100  Level FlightAware
06:09AM 32.6570 117.2370 280° West 426 490 36,100  Level FlightAware
06:10AM 32.6670 117.1640 279° West 426 490 36,100  Level FlightAware
06:11AM 32.6920 116.9960 280° West 426 490 36,100  Level FlightAware
06:12AM 32.7060 116.9010 280° West 426 490 36,100  Level FlightAware
06:12AM 32.7140 116.8520 281° West 426 490 36,100  Level FlightAware
06:15AM 32.7289 116.6139 274° West  Level Estimated
06:16AM 32.7361 116.4958 274° West  Level Estimated
06:17AM 32.7432 116.3776 274° West  Level Estimated
06:18AM 32.7502 116.2595 274° West  Level Estimated
06:19AM 32.7571 116.1413 274° West  Level Estimated
06:20AM 32.7638 116.0231 274° West  Level Estimated
06:21AM 32.7705 115.9049 274° West  Level Estimated
06:22AM 32.7770 115.7867 274° West  Level Estimated
06:23AM 32.7835 115.6685 274° West  Level Estimated
06:24AM 32.7898 115.5502 274° West  Level Estimated
06:25AM 32.7960 115.4319 274° West  Level Estimated
06:26AM 32.8021 115.3136 274° West  Level Estimated
06:27AM 32.8081 115.1953 273° West  Level Estimated
06:28AM 32.8140 115.0770 273° West  Level Estimated
06:29AM 32.8198 114.9587 273° West  Level Estimated
06:30AM 32.8254 114.8403 273° West  Level Estimated
06:31AM 32.8310 114.7219 273° West  Level Estimated
06:32AM 32.8364 114.6036 273° West  Level Estimated
06:33AM 32.8417 114.4852 273° West  Level Estimated
06:34AM 32.8470 114.3668 273° West  Level Estimated
06:35AM 32.8521 114.2483 273° West  Level Estimated
06:36AM 32.8570 114.1299 273° West  Level Estimated
06:37AM 32.8619 114.0115 273° West  Level Estimated
06:38AM 32.8667 113.8930 273° West  Level Estimated
06:39AM 32.8713 113.7745 273° West  Level Estimated
06:40AM 32.8759 113.6560 273° West  Level Estimated
06:41AM 32.8803 113.5375 273° West  Level Estimated
06:42AM 32.8846 113.4190 273° West  Level Estimated
06:43AM 32.8889 113.3005 272° West  Level Estimated
06:44AM 32.8929 113.1820 272° West  Level Estimated
06:45AM 32.8969 113.0634 272° West  Level Estimated
06:46AM 32.9008 112.9449 272° West  Level Estimated
06:47AM 32.9046 112.8263 272° West  Level Estimated
06:48AM 32.9082 112.7077 272° West  Level Estimated
06:49AM 32.9118 112.5891 272° West  Level Estimated
06:50AM 32.9152 112.4705 272° West  Level Estimated
06:51AM 32.9185 112.3519 272° West  Level Estimated
06:52AM 32.9217 112.2333 272° West  Level Estimated
06:53AM 32.9248 112.1147 272° West  Level Estimated
06:54AM 32.9278 111.9961 272° West  Level Estimated
06:55AM 32.9306 111.8774 272° West  Level Estimated
06:56AM 32.9334 111.7588 272° West  Level Estimated
06:57AM 32.9360 111.6401 272° West  Level Estimated
06:58AM 32.9385 111.5215 271° West  Level Estimated
06:59AM 32.9410 111.4028 271° West  Level Estimated
07:00AM 32.9433 111.2841 271° West  Level Estimated
07:01AM 32.9455 111.1655 271° West  Level Estimated
07:02AM 32.9475 111.0468 271° West  Level Estimated
07:03AM 32.9495 110.9281 271° West  Level Estimated
07:04AM 32.9514 110.8094 271° West  Level Estimated
07:05AM 32.9531 110.6907 271° West  Level Estimated
07:06AM 32.9547 110.5720 271° West  Level Estimated
07:07AM 32.9563 110.4533 271° West  Level Estimated
07:08AM 32.9577 110.3346 271° West  Level Estimated
07:09AM 32.9590 110.2159 271° West  Level Estimated
07:10AM 32.9601 110.0972 271° West  Level Estimated
07:11AM 32.9612 109.9784 271° West  Level Estimated
07:12AM 32.9622 109.8597 271° West  Level Estimated
07:13AM 32.9630 109.7410 271° West  Level Estimated
07:14AM 32.9637 109.6223 270° West  Level Estimated
07:15AM 32.9644 109.5035 270° West  Level Estimated
07:16AM 32.9649 109.3848 270° West  Level Estimated
07:17AM 32.9653 109.2661 270° West  Level Estimated
07:18AM 32.9656 109.1473 270° West  Level Estimated
07:19AM 32.9657 109.0286 270° West  Level Estimated
07:20AM 32.9658 108.9099 270° West  Level Estimated
07:21AM 32.9657 108.7911 270° West  Level Estimated
07:22AM 32.9656 108.6724 270° West  Level Estimated
07:23AM 32.9653 108.5537 270° West  Level Estimated
07:24AM 32.9649 108.4350 270° West  Level Estimated
07:25AM 32.9644 108.3162 270° West  Level Estimated
07:26AM 32.9638 108.1975 270° West  Level Estimated
07:27AM 32.9631 108.0788 270° West  Level Estimated
07:28AM 32.9622 107.9600 270° West  Level Estimated
07:29AM 32.9613 107.8413 269° West  Level Estimated
07:30AM 32.9602 107.7226 269° West  Level Estimated
07:31AM 32.9590 107.6039 269° West  Level Estimated
07:32AM 32.9577 107.4852 269° West  Level Estimated
07:33AM 32.9563 107.3664 269° West  Level Estimated
07:34AM 32.9548 107.2477 269° West  Level Estimated
07:35AM 32.9532 107.1290 269° West  Level Estimated
07:36AM 32.9515 107.0103 269° West  Level Estimated
07:37AM 32.9496 106.8916 269° West  Level Estimated
07:38AM 32.9476 106.7729 269° West  Level Estimated
07:39AM 32.9456 106.6543 269° West  Level Estimated
07:40AM 32.9434 106.5356 269° West  Level Estimated
07:41AM 32.9411 106.4169 269° West  Level Estimated
07:42AM 32.9387 106.2982 269° West  Level Estimated
07:43AM 32.9361 106.1796 269° West  Level Estimated
07:44AM 32.9335 106.0609 269° West  Level Estimated
07:45AM 32.9308 105.9423 268° West  Level Estimated
07:46AM 32.9279 105.8237 268° West  Level Estimated
07:47AM 32.9249 105.7050 268° West  Level Estimated
07:48AM 32.9218 105.5864 268° West  Level Estimated
07:49AM 32.9187 105.4678 268° West  Level Estimated
07:50AM 32.9153 105.3492 268° West  Level Estimated
07:51AM 32.9119 105.2306 268° West  Level Estimated
07:52AM 32.9084 105.1120 268° West  Level Estimated
07:53AM 32.9048 104.9934 268° West  Level Estimated
07:54AM 32.9010 104.8749 268° West  Level Estimated
07:55AM 32.8971 104.7563 268° West  Level Estimated
07:56AM 32.8931 104.6378 268° West  Level Estimated
07:57AM 32.8890 104.5192 268° West  Level Estimated
07:58AM 32.8848 104.4007 268° West  Level Estimated
07:59AM 32.8805 104.2822 268° West  Level Estimated
08:00AM 32.8761 104.1637 267° West  Level Estimated
08:01AM 32.8716 104.0452 267° West  Level Estimated
08:02AM 32.8669 103.9267 267° West  Level Estimated
08:03AM 32.8621 103.8083 267° West  Level Estimated
08:04AM 32.8573 103.6898 267° West  Level Estimated
08:05AM 32.8570 103.6830 267° West  Level Estimated